Time;durP1;ratioP1;P1;durP2;ratioP2;P2;SDS_P1;SDS_P2;PMS_P1;PMS_P2;Temp;Humidity;BMP_temperature;BMP_pressure;BME280_temperature;BME280_humidity;BME280_pressure;Samples;Min_cycle;Max_cycle;Signal;HPM_P1;HPM_P2
2023/10/02 00:05:06;;;;;;;16.88;6.50;;;17.30;99.90;;;;;;5041401;28;20132;-67
2023/10/02 00:07:36;;;;;;;16.33;7.45;;;17.30;99.90;;;;;;5045870;28;20498;-67
2023/10/02 00:10:03;;;;;;;17.75;7.47;;;17.20;99.90;;;;;;5046187;28;20570;-67
2023/10/02 00:12:31;;;;;;;11.32;6.57;;;17.20;99.90;;;;;;5011552;28;20560;-67
2023/10/02 00:14:58;;;;;;;16.58;7.10;;;17.20;99.90;;;;;;5047776;28;20454;-67
2023/10/02 00:17:24;;;;;;;18.15;7.30;;;17.10;99.90;;;;;;5035123;28;20045;-67
2023/10/02 00:20:13;;;;;;;17.05;8.05;;;17.20;99.90;;;;;;5052636;28;20044;-67
2023/10/02 00:22:41;;;;;;;20.40;7.45;;;17.20;99.90;;;;;;5053345;28;20098;-67
2023/10/02 00:25:22;;;;;;;18.52;7.80;;;17.10;99.90;;;;;;5047712;28;20040;-67
2023/10/02 00:27:50;;;;;;;16.67;7.40;;;17.20;99.90;;;;;;5045918;28;20057;-67
2023/10/02 00:30:20;;;;;;;19.40;7.63;;;17.20;99.90;;;;;;5002029;28;20099;-67
2023/10/02 00:32:47;;;;;;;15.32;7.35;;;17.20;99.90;;;;;;5052530;28;20132;-67
2023/10/02 00:35:14;;;;;;;16.05;7.28;;;17.20;99.90;;;;;;5051243;28;20491;-67
2023/10/02 00:37:44;;;;;;;14.68;7.78;;;17.20;99.90;;;;;;5052021;28;20080;-67
2023/10/02 00:40:13;;;;;;;17.48;7.47;;;17.20;99.90;;;;;;5032189;28;20029;-67
2023/10/02 00:42:39;;;;;;;22.40;7.85;;;17.20;99.90;;;;;;5052625;28;20044;-67
2023/10/02 00:45:08;;;;;;;23.33;8.48;;;17.20;99.90;;;;;;5052302;28;20114;-67
2023/10/02 00:47:42;;;;;;;21.27;7.47;;;17.10;99.90;;;;;;5052259;28;20134;-67
2023/10/02 00:50:23;;;;;;;16.42;7.43;;;17.10;99.90;;;;;;5048622;28;20036;-67
2023/10/02 00:52:59;;;;;;;20.83;7.55;;;17.10;99.90;;;;;;5052763;28;20606;-67
2023/10/02 00:55:32;;;;;;;12.52;7.03;;;17.10;99.90;;;;;;5033704;28;20497;-67
2023/10/02 00:58:03;;;;;;;16.38;8.60;;;17.10;99.90;;;;;;5052888;28;20044;-67
2023/10/02 01:00:36;;;;;;;17.55;7.68;;;17.10;99.90;;;;;;5050484;28;20380;-67
2023/10/02 01:03:08;;;;;;;17.85;7.68;;;17.10;99.90;;;;;;5018560;28;20040;-67
2023/10/02 01:05:58;;;;;;;17.95;8.15;;;17.10;99.90;;;;;;5052718;28;20452;-68
2023/10/02 01:08:25;;;;;;;16.58;8.02;;;17.10;99.90;;;;;;5043585;28;20152;-67
2023/10/02 01:10:59;;;;;;;19.92;8.13;;;17.10;99.90;;;;;;5051464;28;20092;-67
2023/10/02 01:16:04;;;;;;;16.73;8.15;;;17.00;99.90;;;;;;5030411;28;20499;-64
2023/10/02 01:18:30;;;;;;;18.38;8.07;;;17.00;99.90;;;;;;5019554;28;20067;-64
2023/10/02 01:21:01;;;;;;;14.85;6.88;;;16.90;99.90;;;;;;5030168;28;20492;-64
2023/10/02 01:23:30;;;;;;;19.17;7.78;;;17.00;99.90;;;;;;5014947;28;20045;-64
2023/10/02 01:25:57;;;;;;;14.15;6.95;;;17.00;99.90;;;;;;5031420;28;20041;-64
2023/10/02 01:28:51;;;;;;;16.05;7.57;;;16.90;99.90;;;;;;5029220;28;20069;-64
2023/10/02 01:31:35;;;;;;;17.30;7.97;;;17.00;99.90;;;;;;5019840;28;20487;-64
2023/10/02 01:34:02;;;;;;;13.05;8.18;;;17.00;99.90;;;;;;5028917;28;20126;-64
2023/10/02 01:36:32;;;;;;;18.42;8.20;;;16.90;99.90;;;;;;5011244;28;20052;-64
2023/10/02 01:39:15;;;;;;;13.15;7.00;;;16.90;99.90;;;;;;5028412;28;20045;-64
2023/10/02 01:41:42;;;;;;;17.55;8.40;;;16.90;99.90;;;;;;5023121;28;20368;-65
2023/10/02 01:44:11;;;;;;;15.50;7.30;;;16.80;99.90;;;;;;5028610;28;20502;-64
2023/10/02 01:46:50;;;;;;;16.23;7.97;;;16.90;99.90;;;;;;4991004;28;20045;-65
2023/10/02 01:49:25;;;;;;;22.00;7.88;;;16.80;99.90;;;;;;5004217;28;20585;-64
2023/10/02 01:51:57;;;;;;;15.60;7.72;;;16.80;99.90;;;;;;5026826;28;20037;-65
2023/10/02 01:54:25;;;;;;;17.77;8.55;;;16.80;99.90;;;;;;5010264;28;20052;-65
2023/10/02 01:56:52;;;;;;;17.47;7.83;;;16.80;99.90;;;;;;5027390;28;20399;-65
2023/10/02 01:59:21;;;;;;;16.27;8.07;;;16.80;99.90;;;;;;5026635;28;20049;-65
2023/10/02 02:01:56;;;;;;;17.25;7.57;;;16.80;99.90;;;;;;5027993;28;20506;-64
2023/10/02 02:04:33;;;;;;;17.67;8.07;;;16.80;99.90;;;;;;5027293;28;20080;-65
2023/10/02 02:07:00;;;;;;;14.95;7.88;;;16.80;99.90;;;;;;5000840;28;20046;-65
2023/10/02 02:09:37;;;;;;;21.58;8.48;;;16.80;99.90;;;;;;5023133;28;20072;-65
2023/10/02 02:12:13;;;;;;;15.90;7.97;;;16.70;99.90;;;;;;5029728;28;20056;-64
2023/10/02 02:14:51;;;;;;;22.90;8.23;;;16.80;99.90;;;;;;4993502;28;20057;-65
2023/10/02 02:17:25;;;;;;;18.40;8.00;;;16.80;99.90;;;;;;5021893;28;20057;-65
2023/10/02 02:19:52;;;;;;;18.98;8.60;;;16.80;99.90;;;;;;5016441;28;20525;-65
2023/10/02 02:22:23;;;;;;;21.60;8.60;;;16.70;99.90;;;;;;5027137;28;20053;-65
2023/10/02 02:24:51;;;;;;;18.50;8.20;;;16.80;99.90;;;;;;5011425;28;20482;-65
2023/10/02 02:27:19;;;;;;;13.35;7.38;;;16.70;99.90;;;;;;5013068;28;20132;-65
2023/10/02 02:29:48;;;;;;;15.82;8.07;;;16.70;99.90;;;;;;5027076;28;20052;-64
2023/10/02 02:32:19;;;;;;;16.52;8.55;;;16.70;99.90;;;;;;5028381;28;20076;-65
2023/10/02 02:34:49;;;;;;;15.20;7.32;;;16.70;99.90;;;;;;5009641;28;20060;-64
2023/10/02 02:37:16;;;;;;;14.68;7.90;;;16.70;99.90;;;;;;5029230;28;20075;-64
2023/10/02 02:39:43;;;;;;;15.35;8.40;;;16.70;99.90;;;;;;5025784;28;20442;-64
2023/10/02 02:42:09;;;;;;;16.30;8.23;;;16.70;99.90;;;;;;5011326;28;20046;-66
2023/10/02 02:44:46;;;;;;;20.88;9.00;;;16.70;99.90;;;;;;5027444;28;20104;-66
2023/10/02 02:47:17;;;;;;;22.25;8.55;;;16.60;99.90;;;;;;5028762;28;20042;-66
2023/10/02 02:49:58;;;;;;;20.05;8.27;;;16.60;99.90;;;;;;5026968;28;20045;-66
2023/10/02 02:52:32;;;;;;;19.02;8.93;;;16.50;99.90;;;;;;5026396;28;20041;-65
2023/10/02 02:55:03;;;;;;;24.23;9.63;;;16.50;99.90;;;;;;5010461;28;20115;-66
2023/10/02 02:57:34;;;;;;;19.95;8.68;;;16.60;99.90;;;;;;5026661;28;20057;-66
2023/10/02 03:02:52;;;;;;;15.75;8.70;;;16.50;99.90;;;;;;5026650;28;20057;-66
2023/10/02 03:05:21;;;;;;;19.13;8.75;;;16.50;99.90;;;;;;5008767;28;20042;-66
2023/10/02 03:07:54;;;;;;;;;;;16.50;99.90;;;;;;5028863;28;20046;-66
2023/10/02 03:10:23;;;;;;;17.85;8.63;;;16.50;99.90;;;;;;5026022;28;20166;-66
2023/10/02 03:12:50;;;;;;;16.60;7.55;;;16.50;99.90;;;;;;5028566;28;20136;-66
2023/10/02 03:15:18;;;;;;;17.98;7.53;;;16.60;99.90;;;;;;5027484;28;20576;-66
2023/10/02 03:17:45;;;;;;;23.80;8.70;;;16.50;99.90;;;;;;5026430;28;20506;-66
2023/10/02 03:20:24;;;;;;;22.63;9.20;;;16.50;99.90;;;;;;5020450;28;20132;-66
2023/10/02 03:22:54;;;;;;;20.90;9.18;;;16.50;99.90;;;;;;4983712;28;20041;-66
2023/10/02 03:25:40;;;;;;;18.83;8.60;;;16.50;99.90;;;;;;5010666;28;20037;-66
2023/10/02 03:28:16;;;;;;;19.60;8.90;;;16.50;99.90;;;;;;5011105;28;20050;-66
2023/10/02 03:30:47;;;;;;;23.55;8.98;;;16.50;99.90;;;;;;5017458;28;20566;-66
2023/10/02 03:33:20;;;;;;;19.45;8.50;;;16.50;99.90;;;;;;4987846;28;20049;-66
2023/10/02 03:36:08;;;;;;;18.92;8.07;;;16.30;99.90;;;;;;5025726;28;20049;-67
2023/10/02 03:38:43;;;;;;;18.35;8.45;;;16.30;99.90;;;;;;5009680;28;20053;-66
2023/10/02 03:41:11;;;;;;;20.70;8.55;;;16.30;99.90;;;;;;5015726;28;20096;-66
2023/10/02 03:43:58;;;;;;;18.80;9.25;;;16.20;99.90;;;;;;5026926;28;20123;-66
2023/10/02 03:46:23;;;;;;;17.08;8.32;;;16.10;99.90;;;;;;5026884;28;20088;-66
2023/10/02 03:48:58;;;;;;;20.15;8.95;;;16.10;99.90;;;;;;5026318;28;20059;-66
2023/10/02 03:51:40;;;;;;;20.63;9.10;;;16.10;99.90;;;;;;5019102;28;20124;-66
2023/10/02 03:54:20;;;;;;;19.63;8.48;;;16.00;99.90;;;;;;5019875;28;20519;-65
2023/10/02 03:56:48;;;;;;;23.67;9.15;;;16.00;99.90;;;;;;5023364;28;20049;-66
2023/10/02 03:59:21;;;;;;;16.85;9.05;;;15.90;99.90;;;;;;5021853;28;20045;-66
2023/10/02 04:01:48;;;;;;;22.38;8.80;;;16.00;99.90;;;;;;5025385;28;20084;-66
2023/10/02 04:06:45;;;;;;;16.38;8.18;;;15.90;99.90;;;;;;5007435;28;20117;-66
2023/10/02 04:11:48;;;;;;;20.50;9.23;;;15.90;99.90;;;;;;5004666;28;20504;-66
2023/10/02 04:14:17;;;;;;;20.65;9.65;;;15.90;99.90;;;;;;5002470;28;20115;-66
2023/10/02 04:16:59;;;;;;;17.27;9.13;;;15.90;99.90;;;;;;5027377;28;20048;-66
2023/10/02 04:19:26;;;;;;;28.67;10.07;;;15.90;99.90;;;;;;5025603;28;20125;-66
2023/10/02 04:21:53;;;;;;;16.50;8.55;;;15.90;99.90;;;;;;5007798;28;20541;-66
2023/10/02 04:24:23;;;;;;;20.27;9.65;;;15.90;99.90;;;;;;5008257;28;20045;-66
2023/10/02 04:26:54;;;;;;;19.58;8.75;;;15.90;99.90;;;;;;5026278;28;20654;-66
2023/10/02 04:29:28;;;;;;;19.42;9.18;;;15.90;99.90;;;;;;5027334;28;20048;-66
2023/10/02 04:32:18;;;;;;;14.98;8.60;;;15.90;99.90;;;;;;5025736;28;20057;-66
2023/10/02 04:34:50;;;;;;;18.45;8.98;;;15.90;99.90;;;;;;5020690;28;20045;-66
2023/10/02 04:37:19;;;;;;;18.80;9.63;;;15.80;99.90;;;;;;5008954;28;20049;-66
2023/10/02 04:42:25;;;;;;;21.00;10.07;;;15.90;99.90;;;;;;5027860;28;20054;-66
2023/10/02 04:45:04;;;;;;;22.20;9.93;;;15.90;99.90;;;;;;5023679;28;20055;-66
2023/10/02 04:47:32;;;;;;;19.58;9.35;;;15.90;99.90;;;;;;5027272;28;20053;-66
2023/10/02 04:53:03;;;;;;;18.23;9.25;;;15.80;99.90;;;;;;5026979;28;20073;-66
2023/10/02 04:55:41;;;;;;;18.70;9.77;;;15.90;99.90;;;;;;5007936;28;20145;-66
2023/10/02 04:58:14;;;;;;;18.88;9.77;;;15.80;99.90;;;;;;5019371;28;20494;-66
2023/10/02 05:03:55;;;;;;;20.10;9.48;;;15.80;99.90;;;;;;5029521;28;20060;-66
2023/10/02 05:06:44;;;;;;;19.83;9.60;;;15.70;99.90;;;;;;5003550;28;20080;-66
2023/10/02 05:11:57;;;;;;;23.50;9.07;;;15.70;99.90;;;;;;5011706;28;20063;-66
2023/10/02 05:14:27;;;;;;;18.38;9.27;;;15.70;99.90;;;;;;5028012;28;20099;-66
2023/10/02 05:17:19;;;;;;;20.52;9.13;;;15.70;99.90;;;;;;5012546;28;20048;-66
2023/10/02 05:19:56;;;;;;;21.20;9.10;;;15.60;99.90;;;;;;5019711;28;20049;-66
2023/10/02 05:22:24;;;;;;;20.35;10.05;;;15.60;99.90;;;;;;5029501;28;20049;-66
2023/10/02 05:24:58;;;;;;;20.20;9.52;;;15.60;99.90;;;;;;5028917;28;20127;-66
2023/10/02 05:27:29;;;;;;;21.38;9.95;;;15.60;99.90;;;;;;5029999;28;20068;-66
2023/10/02 05:29:59;;;;;;;20.20;9.60;;;15.50;99.90;;;;;;5028370;28;20180;-66
2023/10/02 05:32:31;;;;;;;25.73;10.15;;;15.60;99.90;;;;;;5028666;28;20076;-66
2023/10/02 05:37:39;;;;;;;18.30;9.27;;;15.60;99.90;;;;;;5028401;28;20045;-66
2023/10/02 05:42:53;;;;;;;21.75;10.55;;;15.60;99.90;;;;;;5030119;28;20049;-66
2023/10/02 05:48:08;;;;;;;15.57;8.90;;;15.70;99.90;;;;;;5022592;28;20463;-66
2023/10/02 05:50:40;;;;;;;18.23;9.18;;;15.60;99.90;;;;;;5027110;28;20112;-65
2023/10/02 05:53:06;;;;;;;22.77;10.00;;;15.60;99.90;;;;;;5029111;28;20068;-66
2023/10/02 05:55:56;;;;;;;17.38;8.93;;;15.60;99.90;;;;;;5011526;28;20057;-66
2023/10/02 05:58:37;;;;;;;19.48;9.70;;;15.70;99.90;;;;;;5027958;28;20045;-66
2023/10/02 06:01:06;;;;;;;21.42;10.20;;;15.70;99.90;;;;;;5005994;28;20232;-66
2023/10/02 06:03:36;;;;;;;19.63;9.55;;;15.70;99.90;;;;;;5024585;28;20497;-66
2023/10/02 06:06:18;;;;;;;18.73;9.90;;;15.70;99.90;;;;;;5028050;28;20556;-66
2023/10/02 06:08:48;;;;;;;18.98;9.63;;;15.80;99.90;;;;;;5029054;28;20049;-66
2023/10/02 06:11:34;;;;;;;20.13;10.05;;;15.80;99.90;;;;;;4996131;28;20041;-66
2023/10/02 06:14:09;;;;;;;18.10;9.07;;;15.80;99.90;;;;;;5024109;28;20129;-66
2023/10/02 06:16:42;;;;;;;20.35;10.77;;;15.90;99.90;;;;;;5012940;28;20511;-66
2023/10/02 06:19:18;;;;;;;21.90;10.00;;;15.90;99.90;;;;;;5027351;28;20388;-66
2023/10/02 06:24:30;;;;;;;24.13;10.68;;;15.90;99.90;;;;;;5005932;28;20204;-66
2023/10/02 06:27:04;;;;;;;23.17;10.38;;;16.00;99.90;;;;;;4994416;28;20053;-66
2023/10/02 06:29:35;;;;;;;22.48;9.98;;;16.10;99.90;;;;;;5024146;28;20116;-66
2023/10/02 06:32:11;;;;;;;22.77;10.35;;;16.00;99.90;;;;;;5027030;28;20050;-66
2023/10/02 06:34:38;;;;;;;20.77;9.93;;;16.10;99.90;;;;;;5023533;28;20072;-66
2023/10/02 06:37:11;;;;;;;21.35;9.82;;;16.10;99.90;;;;;;5009315;28;20152;-66
2023/10/02 06:39:39;;;;;;;22.83;10.00;;;16.20;99.90;;;;;;5027912;28;20080;-66
2023/10/02 06:42:10;;;;;;;17.92;9.65;;;16.10;99.90;;;;;;5025484;28;20391;-66
2023/10/02 06:44:52;;;;;;;22.90;9.90;;;16.10;99.90;;;;;;5026300;28;20045;-66
2023/10/02 06:47:28;;;;;;;24.67;10.65;;;16.20;99.90;;;;;;5026316;28;20063;-65
2023/10/02 06:49:53;;;;;;;22.52;10.25;;;16.20;99.90;;;;;;5022883;28;20049;-66
2023/10/02 06:52:20;;;;;;;25.67;9.48;;;16.30;99.90;;;;;;5010898;28;20076;-66
2023/10/02 06:54:48;;;;;;;29.33;9.10;;;16.30;99.90;;;;;;5025472;28;20076;-66
2023/10/02 06:57:17;;;;;;;20.17;9.48;;;16.40;99.90;;;;;;5022376;28;20030;-66
2023/10/02 06:59:51;;;;;;;22.65;10.30;;;16.40;99.90;;;;;;5018258;28;20047;-66
2023/10/02 07:02:26;;;;;;;20.73;10.38;;;16.40;99.90;;;;;;5031976;28;20478;-66
2023/10/02 07:04:56;;;;;;;26.92;10.52;;;16.50;99.90;;;;;;5028757;28;20388;-66
2023/10/02 07:07:25;;;;;;;23.20;10.35;;;16.50;99.90;;;;;;5025473;28;20057;-66
2023/10/02 07:10:08;;;;;;;21.33;9.88;;;16.50;99.90;;;;;;5010509;28;20045;-66
2023/10/02 07:12:39;;;;;;;21.48;10.18;;;16.60;99.90;;;;;;5011722;28;20046;-66
2023/10/02 07:15:22;;;;;;;18.20;9.48;;;16.60;99.90;;;;;;5025635;28;20064;-66
2023/10/02 07:18:00;;;;;;;22.05;9.88;;;16.70;99.90;;;;;;5028031;28;20130;-66
2023/10/02 07:20:42;;;;;;;20.27;10.20;;;16.70;99.90;;;;;;5026967;28;20073;-67
2023/10/02 07:23:19;;;;;;;21.95;10.32;;;16.80;99.90;;;;;;5014253;28;20049;-66
2023/10/02 07:25:50;;;;;;;23.10;10.15;;;16.80;99.90;;;;;;5006498;28;20494;-66
2023/10/02 07:28:21;;;;;;;24.65;9.77;;;16.90;99.90;;;;;;5027780;28;20073;-66
2023/10/02 07:30:50;;;;;;;26.05;10.75;;;17.00;99.90;;;;;;5000261;28;20053;-66
2023/10/02 07:33:19;;;;;;;22.35;9.50;;;17.10;99.90;;;;;;5005891;28;20095;-66
2023/10/02 07:35:52;;;;;;;22.10;11.35;;;17.20;99.90;;;;;;5002805;28;20046;-66
2023/10/02 07:38:30;;;;;;;22.27;10.63;;;17.30;99.90;;;;;;5012884;28;20068;-66
2023/10/02 07:40:57;;;;;;;21.58;10.50;;;17.40;99.90;;;;;;5011858;28;20475;-66
2023/10/02 07:43:24;;;;;;;25.10;10.68;;;17.50;99.90;;;;;;5025245;28;20044;-66
2023/10/02 07:46:23;;;;;;;23.40;9.60;;;17.60;99.90;;;;;;5025747;28;20046;-66
2023/10/02 07:48:51;;;;;;;20.42;10.25;;;17.80;99.90;;;;;;5022754;28;20033;-66
2023/10/02 07:51:17;;;;;;;22.45;11.48;;;17.90;99.90;;;;;;5025759;28;20096;-67
2023/10/02 07:53:44;;;;;;;22.92;10.68;;;18.00;99.90;;;;;;5027470;28;20116;-67
2023/10/02 07:56:14;;;;;;;24.27;10.10;;;18.10;99.90;;;;;;5022117;28;20057;-66
2023/10/02 07:58:41;;;;;;;24.35;10.77;;;18.20;99.90;;;;;;5017437;28;20049;-66
2023/10/02 08:01:13;;;;;;;24.25;10.40;;;18.30;99.90;;;;;;5026778;28;20125;-66
2023/10/02 08:03:43;;;;;;;20.98;10.63;;;18.50;99.90;;;;;;4991448;28;20049;-66
2023/10/02 08:11:39;;;;;;;23.30;10.07;;;18.70;99.90;;;;;;5027305;28;20050;-67
2023/10/02 08:14:34;;;;;;;27.25;10.98;;;18.90;99.90;;;;;;5008975;28;20058;-67
2023/10/02 08:17:00;;;;;;;22.50;11.35;;;19.00;99.90;;;;;;5023514;28;20065;-66
2023/10/02 08:19:27;;;;;;;23.88;10.30;;;19.10;99.90;;;;;;5026814;28;20129;-67
2023/10/02 08:21:53;;;;;;;26.20;11.15;;;19.10;99.90;;;;;;5007930;28;20046;-66
2023/10/02 08:24:19;;;;;;;24.17;10.30;;;19.20;99.90;;;;;;5027083;28;20099;-66
2023/10/02 08:26:45;;;;;;;23.20;9.95;;;19.20;99.90;;;;;;5026892;28;20072;-66
2023/10/02 08:29:15;;;;;;;25.05;11.48;;;19.20;99.90;;;;;;5026032;28;20103;-66
2023/10/02 08:31:44;;;;;;;25.17;10.70;;;19.30;99.90;;;;;;5007581;28;20553;-66
2023/10/02 08:34:25;;;;;;;25.45;11.05;;;19.30;99.90;;;;;;5007783;28;20135;-66
2023/10/02 08:37:07;;;;;;;21.10;10.07;;;19.40;99.90;;;;;;5029248;28;20076;-66
2023/10/02 08:39:36;;;;;;;26.15;11.32;;;19.40;99.90;;;;;;5026761;28;20056;-66
2023/10/02 08:42:08;;;;;;;25.90;11.65;;;19.50;99.90;;;;;;4996668;28;20132;-66
2023/10/02 08:44:38;;;;;;;22.92;10.35;;;19.60;99.90;;;;;;5030821;28;20529;-66
2023/10/02 08:47:24;;;;;;;26.30;10.35;;;19.60;99.90;;;;;;4995242;28;20111;-67
2023/10/02 08:50:03;;;;;;;21.88;11.00;;;19.70;99.90;;;;;;5031040;28;20085;-67
2023/10/02 08:52:38;;;;;;;24.42;11.68;;;19.70;99.90;;;;;;5029697;28;20533;-67
2023/10/02 08:56:21;;;;;;;20.55;10.10;;;19.80;99.90;;;;;;5030005;28;20052;-67
2023/10/02 08:58:15;;;;;;;27.00;11.80;;;19.90;99.90;;;;;;5025025;28;20089;-66
2023/10/02 09:03:41;;;;;;;19.63;10.48;;;20.10;99.90;;;;;;5029520;28;20305;-66
2023/10/02 09:06:35;;;;;;;19.98;11.00;;;20.20;99.90;;;;;;5029282;28;20045;-66
2023/10/02 09:09:22;;;;;;;23.00;10.30;;;20.20;99.90;;;;;;5028854;28;20050;-66
2023/10/02 09:11:58;;;;;;;28.38;10.55;;;20.30;99.90;;;;;;5014248;28;20037;-66
2023/10/02 09:17:21;;;;;;;26.95;11.38;;;20.10;99.90;;;;;;5029587;28;20053;-66
2023/10/02 09:20:00;;;;;;;22.30;10.60;;;20.10;99.90;;;;;;5029929;28;20049;-66
2023/10/02 09:22:27;;;;;;;30.08;12.10;;;20.00;99.90;;;;;;5028331;28;20049;-65
2023/10/02 09:25:09;;;;;;;26.10;10.88;;;19.90;99.90;;;;;;5025521;28;20136;-65
2023/10/02 09:27:41;;;;;;;26.38;11.07;;;19.90;99.90;;;;;;5029355;28;20050;-66
2023/10/02 09:30:23;;;;;;;28.63;10.93;;;19.80;99.90;;;;;;4988431;28;20049;-66
2023/10/02 09:32:51;;;;;;;25.70;10.27;;;19.90;99.90;;;;;;5029778;28;20439;-66
2023/10/02 09:35:44;;;;;;;24.75;10.32;;;20.00;99.90;;;;;;5010806;28;20115;-66
2023/10/02 09:38:13;;;;;;;25.02;10.38;;;20.20;99.90;;;;;;4998995;28;20052;-66
2023/10/02 09:43:28;;;;;;;28.75;10.77;;;20.50;99.90;;;;;;5026460;28;20065;-66
2023/10/02 09:45:55;;;;;;;;;;;20.70;99.90;;;;;;5030852;28;20045;-66
2023/10/02 09:51:26;;;;;;;27.15;11.27;;;21.00;99.90;;;;;;5009333;28;20080;-66
2023/10/02 09:54:08;;;;;;;29.20;12.55;;;21.00;99.90;;;;;;5029767;28;20045;-66
2023/10/02 09:57:11;;;;;;;26.08;9.65;;;21.10;99.90;;;;;;5027839;28;20060;-66
2023/10/02 09:59:48;;;;;;;22.35;10.10;;;21.20;99.90;;;;;;5029043;28;20089;-66
2023/10/02 10:05:30;;;;;;;22.63;10.05;;;21.20;99.90;;;;;;5026298;28;20505;-65
2023/10/02 10:10:45;;;;;;;29.42;9.65;;;21.20;99.90;;;;;;5028176;28;20045;-65
2023/10/02 10:13:26;;;;;;;18.38;9.30;;;21.10;99.90;;;;;;5010077;28;20092;-66
2023/10/02 10:16:20;;;;;;;24.20;9.57;;;21.10;99.90;;;;;;5025759;28;20061;-66
2023/10/02 10:22:04;;;;;;;22.13;9.60;;;21.20;99.90;;;;;;4997319;28;20041;-66
2023/10/02 10:24:55;;;;;;;27.92;10.40;;;21.10;99.90;;;;;;5025073;28;20046;-65
2023/10/02 10:27:39;;;;;;;22.08;9.95;;;21.00;99.90;;;;;;5009133;28;20072;-65
2023/10/02 10:30:31;;;;;;;24.00;9.85;;;21.10;99.90;;;;;;5024835;28;20513;-65
2023/10/02 10:35:58;;;;;;;22.60;11.05;;;21.30;99.90;;;;;;5009132;28;20064;-66
2023/10/02 10:38:34;;;;;;;22.98;10.15;;;21.30;99.90;;;;;;5027183;28;20062;-65
2023/10/02 10:41:01;;;;;;;23.40;9.88;;;21.20;99.90;;;;;;5008674;28;20057;-65
2023/10/02 10:46:28;;;;;;;25.77;10.30;;;21.40;99.90;;;;;;5013353;28;20121;-65
2023/10/02 10:48:59;;;;;;;25.63;10.18;;;21.40;99.90;;;;;;5020580;28;20049;-65
2023/10/02 10:51:28;;;;;;;22.05;9.82;;;21.40;99.90;;;;;;5007971;28;20567;-65
2023/10/02 10:54:18;;;;;;;17.85;8.90;;;21.50;99.90;;;;;;5025251;28;20045;-65
2023/10/02 10:56:45;;;;;;;23.73;10.85;;;21.70;99.90;;;;;;5023716;28;20110;-66
2023/10/02 10:59:12;;;;;;;28.05;9.57;;;21.90;99.90;;;;;;5026622;28;20510;-65
2023/10/02 11:02:30;;;;;;;18.45;10.23;;;22.00;99.90;;;;;;5024863;28;20091;-65
2023/10/02 11:04:40;;;;;;;25.70;10.48;;;22.10;99.90;;;;;;5013087;28;20045;-65
2023/10/02 11:07:19;;;;;;;20.80;9.87;;;22.20;99.90;;;;;;5027445;28;20053;-65
2023/10/02 11:12:55;;;;;;;30.70;11.32;;;22.30;99.90;;;;;;5013396;28;20042;-65
2023/10/02 11:18:20;;;;;;;24.92;9.82;;;22.10;99.90;;;;;;5025704;28;20507;-65
2023/10/02 11:20:57;;;;;;;17.13;8.47;;;22.00;99.90;;;;;;5026683;28;20077;-65
2023/10/02 11:23:40;;;;;;;20.77;9.82;;;21.90;99.90;;;;;;4998563;28;20092;-65
2023/10/02 11:26:21;;;;;;;19.35;9.52;;;22.00;99.90;;;;;;5010412;28;20430;-65
2023/10/02 11:28:49;;;;;;;18.90;9.48;;;21.90;99.90;;;;;;5005436;28;20077;-65
2023/10/02 11:31:45;;;;;;;26.08;10.60;;;21.90;99.90;;;;;;5021670;28;20052;-65
2023/10/02 11:34:11;;;;;;;18.38;8.77;;;21.90;99.90;;;;;;5010064;28;20188;-65
2023/10/02 11:36:46;;;;;;;25.45;9.13;;;21.90;99.90;;;;;;5026262;28;20077;-65
2023/10/02 11:39:19;;;;;;;19.98;10.02;;;21.80;99.90;;;;;;5027710;28;20049;-65
2023/10/02 11:41:46;;;;;;;20.58;9.23;;;21.80;99.90;;;;;;5008007;28;20048;-65
2023/10/02 11:44:13;;;;;;;19.38;9.35;;;21.80;99.90;;;;;;5008483;28;20067;-65
2023/10/02 11:46:48;;;;;;;24.60;10.10;;;21.80;99.90;;;;;;5009746;28;20052;-65
2023/10/02 11:49:14;;;;;;;25.48;9.43;;;21.80;99.90;;;;;;5008759;28;20126;-64
2023/10/02 11:51:40;;;;;;;20.02;9.38;;;21.90;99.90;;;;;;4993734;28;20533;-65
2023/10/02 11:54:09;;;;;;;24.10;9.07;;;21.90;99.90;;;;;;5007789;28;20112;-65
2023/10/02 11:56:35;;;;;;;25.75;10.23;;;22.00;99.90;;;;;;5027513;28;20057;-65
2023/10/02 11:59:06;;;;;;;18.52;8.50;;;22.10;99.90;;;;;;5009528;28;20835;-65
2023/10/02 12:01:32;;;;;;;18.42;9.35;;;22.10;99.90;;;;;;5007492;28;20065;-65
2023/10/02 12:03:58;;;;;;;17.48;8.43;;;22.20;99.90;;;;;;5027298;28;20081;-65
2023/10/02 12:06:25;;;;;;;22.02;9.35;;;22.30;99.90;;;;;;5014078;28;20733;-65
2023/10/02 12:08:52;;;;;;;27.52;9.23;;;22.30;99.90;;;;;;5025555;28;20044;-65
2023/10/02 12:11:17;;;;;;;20.23;8.43;;;22.40;99.90;;;;;;5025906;28;20050;-65
2023/10/02 12:13:44;;;;;;;19.95;8.30;;;22.50;99.90;;;;;;5027444;28;20492;-65
2023/10/02 12:16:11;;;;;;;26.17;8.85;;;22.50;99.90;;;;;;5026294;28;20503;-65
2023/10/02 12:18:38;;;;;;;18.63;8.35;;;22.50;99.90;;;;;;5024045;28;20140;-66
2023/10/02 12:21:08;;;;;;;19.27;9.23;;;22.50;99.90;;;;;;5006551;28;20053;-66
2023/10/02 12:23:39;;;;;;;19.95;8.77;;;22.50;99.90;;;;;;5024477;28;20451;-65
2023/10/02 12:26:07;;;;;;;18.58;9.05;;;22.50;99.90;;;;;;5009095;28;20076;-66
2023/10/02 12:28:33;;;;;;;22.70;9.83;;;22.50;99.90;;;;;;5023781;28;20544;-65
2023/10/02 12:30:59;;;;;;;21.42;9.90;;;22.50;99.90;;;;;;5023409;28;20381;-65
2023/10/02 12:33:25;;;;;;;20.75;9.95;;;22.50;99.90;;;;;;5007257;28;20384;-65
2023/10/02 12:35:54;;;;;;;18.33;8.90;;;22.50;99.90;;;;;;5024366;28;20064;-65
2023/10/02 12:38:24;;;;;;;24.27;9.65;;;22.50;99.90;;;;;;5009390;28;20375;-65
2023/10/02 12:40:51;;;;;;;24.35;10.05;;;22.40;99.90;;;;;;5022674;28;20045;-65
2023/10/02 12:43:17;;;;;;;20.17;8.50;;;22.40;99.90;;;;;;5025474;28;20041;-65
2023/10/02 12:45:43;;;;;;;21.13;9.85;;;22.40;99.90;;;;;;5006337;28;20052;-66
2023/10/02 12:48:09;;;;;;;24.20;9.48;;;22.30;99.90;;;;;;5026157;28;20120;-67
2023/10/02 12:50:53;;;;;;;25.23;10.15;;;22.30;99.90;;;;;;5025235;28;20042;-67
2023/10/02 12:53:19;;;;;;;20.63;9.43;;;22.20;99.90;;;;;;5008227;28;20372;-66
2023/10/02 12:55:47;;;;;;;22.05;10.82;;;22.20;99.90;;;;;;5024810;28;20072;-66
2023/10/02 12:58:14;;;;;;;25.17;10.05;;;22.30;99.90;;;;;;5022892;28;20041;-66
2023/10/02 13:00:40;;;;;;;25.67;10.98;;;22.30;99.90;;;;;;5025759;28;20108;-66
2023/10/02 13:03:07;;;;;;;20.25;9.73;;;22.30;99.90;;;;;;5006345;28;20642;-67
2023/10/02 13:05:33;;;;;;;19.88;9.25;;;22.20;99.90;;;;;;5008865;28;20038;-67
2023/10/02 13:07:58;;;;;;;27.23;10.85;;;22.20;99.90;;;;;;5025438;28;20380;-67
2023/10/02 13:10:24;;;;;;;23.05;10.38;;;22.20;99.90;;;;;;5023512;28;20382;-66
2023/10/02 13:12:51;;;;;;;22.92;9.80;;;22.20;99.90;;;;;;5025906;28;20029;-67
2023/10/02 13:15:17;;;;;;;22.50;10.25;;;22.20;99.90;;;;;;5006921;28;20053;-67
2023/10/02 13:17:43;;;;;;;16.98;8.77;;;22.20;99.90;;;;;;5026280;28;20041;-66
2023/10/02 13:20:10;;;;;;;22.90;10.38;;;22.20;99.90;;;;;;5006445;28;20041;-67
2023/10/02 13:22:37;;;;;;;27.23;10.27;;;22.20;99.90;;;;;;5014232;28;20365;-67
2023/10/02 13:25:11;;;;;;;23.75;12.10;;;22.20;99.90;;;;;;5026904;28;20061;-67
2023/10/02 13:27:37;;;;;;;23.67;9.40;;;22.20;99.90;;;;;;5011372;28;20058;-67
2023/10/02 13:30:05;;;;;;;20.33;10.10;;;22.20;99.90;;;;;;5028924;28;20046;-66
2023/10/02 13:32:31;;;;;;;22.05;10.77;;;22.30;99.90;;;;;;5025134;28;20410;-66
2023/10/02 13:34:57;;;;;;;20.55;10.35;;;22.30;99.90;;;;;;5016911;28;20786;-67
2023/10/02 13:37:22;;;;;;;20.05;10.70;;;22.30;99.90;;;;;;4991079;28;20046;-67
2023/10/02 13:39:48;;;;;;;19.45;10.48;;;22.30;99.90;;;;;;5024937;28;20073;-66
2023/10/02 13:42:15;;;;;;;24.88;10.88;;;22.30;99.90;;;;;;5006057;28;20049;-67
2023/10/02 13:44:40;;;;;;;22.92;11.60;;;22.30;99.90;;;;;;5027418;28;20103;-67
2023/10/02 13:47:06;;;;;;;23.02;10.02;;;22.30;99.90;;;;;;5020588;28;20439;-67
2023/10/02 13:49:32;;;;;;;22.50;10.75;;;22.20;99.90;;;;;;5025936;28;20037;-67
2023/10/02 13:51:58;;;;;;;21.08;10.35;;;22.20;99.90;;;;;;5010431;28;20057;-67
2023/10/02 13:54:24;;;;;;;21.45;10.05;;;22.20;99.90;;;;;;5010130;28;20049;-67
2023/10/02 13:56:50;;;;;;;19.35;9.88;;;22.20;99.90;;;;;;5027824;28;20037;-67
2023/10/02 13:59:16;;;;;;;27.40;10.98;;;22.20;99.90;;;;;;5019290;28;20042;-66
2023/10/02 14:01:42;;;;;;;21.67;9.70;;;22.20;99.90;;;;;;5028106;28;20133;-66
2023/10/02 14:04:10;;;;;;;21.05;10.32;;;22.20;99.90;;;;;;5027052;28;20041;-66
2023/10/02 14:06:36;;;;;;;29.33;11.55;;;22.10;99.90;;;;;;4994098;28;20454;-67
2023/10/02 14:09:04;;;;;;;20.73;10.50;;;22.10;99.90;;;;;;5009001;28;20100;-66
2023/10/02 14:11:29;;;;;;;21.83;10.85;;;22.20;99.90;;;;;;5006365;28;20045;-66
2023/10/02 14:14:00;;;;;;;20.95;10.93;;;22.20;99.90;;;;;;5011458;28;20057;-66